Time;durP1;ratioP1;P1;durP2;ratioP2;P2;SDS_P1;SDS_P2;PMS_P1;PMS_P2;Temp;Humidity;BMP_temperature;BMP_pressure;BME280_temperature;BME280_humidity;BME280_pressure;Samples;Min_cycle;Max_cycle;Signal;HPM_P1;HPM_P2
2023/10/22 00:00:07;;;;;;;8.13;1.83;;;13.60;99.90;;;;;;5045589;28;38818;-78
2023/10/22 00:02:35;;;;;;;2.93;1.77;;;13.60;99.90;;;;;;5033541;28;48280;-78
2023/10/22 00:05:05;;;;;;;8.27;2.15;;;13.60;99.90;;;;;;5022198;28;39360;-77
2023/10/22 00:07:31;;;;;;;6.78;2.17;;;13.60;99.90;;;;;;5032509;28;47567;-78
2023/10/22 00:09:57;;;;;;;8.63;2.15;;;13.60;99.90;;;;;;5026744;28;37119;-77
2023/10/22 00:12:24;;;;;;;12.45;2.47;;;13.60;99.90;;;;;;5024709;28;35545;-78
2023/10/22 00:14:50;;;;;;;7.05;2.28;;;13.50;99.90;;;;;;5026193;28;38926;-77
2023/10/22 00:17:16;;;;;;;6.78;1.83;;;13.50;99.90;;;;;;5030291;28;37360;-78
2023/10/22 00:19:42;;;;;;;13.93;2.20;;;13.40;99.90;;;;;;5040700;28;38971;-78
2023/10/22 00:22:13;;;;;;;5.82;2.13;;;13.40;99.90;;;;;;5042848;28;35979;-77
2023/10/22 00:24:41;;;;;;;9.65;2.65;;;13.40;99.90;;;;;;5032763;28;38981;-78
2023/10/22 00:27:09;;;;;;;5.55;2.67;;;13.30;99.90;;;;;;5037423;28;37534;-77
2023/10/22 00:29:35;;;;;;;11.50;2.42;;;13.30;99.90;;;;;;5027386;28;37944;-77
2023/10/22 00:32:01;;;;;;;8.27;2.63;;;13.40;99.90;;;;;;5030383;28;36863;-76
2023/10/22 00:34:28;;;;;;;5.68;2.17;;;13.30;99.90;;;;;;5034007;28;36538;-78
2023/10/22 00:36:54;;;;;;;8.45;2.17;;;13.30;99.90;;;;;;5034911;28;38581;-77
2023/10/22 00:39:20;;;;;;;6.22;2.00;;;13.30;99.90;;;;;;5025064;28;38523;-77
2023/10/22 00:41:46;;;;;;;6.43;2.50;;;13.40;99.90;;;;;;5042951;28;37341;-78
2023/10/22 00:44:12;;;;;;;11.30;2.55;;;13.40;99.90;;;;;;5039770;28;38667;-77
2023/10/22 00:46:39;;;;;;;4.25;2.10;;;13.40;99.90;;;;;;5027019;28;39628;-76
2023/10/22 00:49:05;;;;;;;5.85;1.92;;;13.40;99.90;;;;;;5032838;28;38647;-77
2023/10/22 00:51:32;;;;;;;6.25;2.20;;;13.40;99.90;;;;;;5030105;28;37871;-77
2023/10/22 00:53:58;;;;;;;5.43;2.00;;;13.30;99.90;;;;;;5032090;28;38025;-76
2023/10/22 00:56:25;;;;;;;8.15;2.40;;;13.40;99.90;;;;;;5024000;28;38617;-77
2023/10/22 00:58:52;;;;;;;5.28;1.80;;;13.40;99.90;;;;;;5028009;28;37655;-77
2023/10/22 01:03:54;;;;;;;7.20;2.17;;;13.40;99.90;;;;;;5038968;22;20473;-76
2023/10/22 01:06:20;;;;;;;4.30;1.60;;;13.40;99.90;;;;;;5038152;28;37508;-77
2023/10/22 01:08:47;;;;;;;5.25;1.65;;;13.40;99.90;;;;;;5048687;28;38530;-76
2023/10/22 01:11:13;;;;;;;6.18;1.45;;;13.50;99.90;;;;;;5063150;28;36420;-76
2023/10/22 01:13:39;;;;;;;7.70;1.55;;;13.50;99.90;;;;;;5039982;28;37575;-76
2023/10/22 01:16:08;;;;;;;5.60;1.27;;;13.60;99.90;;;;;;5040242;28;37268;-77
2023/10/22 01:18:34;;;;;;;7.30;1.67;;;13.60;99.90;;;;;;5054052;28;37949;-77
2023/10/22 01:21:01;;;;;;;6.80;1.75;;;13.70;99.90;;;;;;5045494;28;36857;-77
2023/10/22 01:23:27;;;;;;;10.45;3.00;;;13.90;99.90;;;;;;5044129;28;48100;-77
2023/10/22 01:25:53;;;;;;;13.25;2.42;;;13.90;99.90;;;;;;5042236;28;37874;-76
2023/10/22 01:28:20;;;;;;;7.15;2.95;;;14.00;99.90;;;;;;5057293;28;37443;-76
2023/10/22 01:30:46;;;;;;;11.00;3.70;;;14.00;99.90;;;;;;5044485;28;36811;-76
2023/10/22 01:33:12;;;;;;;13.30;3.67;;;14.00;99.90;;;;;;5037851;28;39084;-76
2023/10/22 01:35:39;;;;;;;14.68;4.43;;;14.10;99.90;;;;;;5043254;28;39547;-77
2023/10/22 01:38:05;;;;;;;16.00;4.30;;;14.00;99.90;;;;;;5044167;28;37009;-76
2023/10/22 01:40:31;;;;;;;15.45;4.28;;;14.00;99.90;;;;;;5040764;28;36455;-75
2023/10/22 01:42:57;;;;;;;15.88;5.00;;;14.10;99.90;;;;;;5042359;28;37526;-76
2023/10/22 01:45:24;;;;;;;14.65;4.53;;;14.10;99.90;;;;;;5044092;28;38230;-76
2023/10/22 01:47:50;;;;;;;15.85;6.55;;;14.00;99.90;;;;;;5042385;28;36962;-76
2023/10/22 01:50:16;;;;;;;13.82;5.88;;;13.90;99.90;;;;;;5042987;28;36969;-77
2023/10/22 01:52:42;;;;;;;14.38;6.57;;;13.90;99.90;;;;;;5047905;28;37650;-77
2023/10/22 01:55:08;;;;;;;14.90;6.15;;;13.90;99.90;;;;;;5042605;28;37932;-76
2023/10/22 01:57:35;;;;;;;18.92;6.80;;;13.80;99.90;;;;;;5047592;28;38227;-76
2023/10/22 02:00:01;;;;;;;15.00;6.22;;;13.80;99.90;;;;;;5043791;28;38492;-77
2023/10/22 02:02:27;;;;;;;16.95;6.03;;;13.60;99.90;;;;;;5045820;28;37800;-77
2023/10/22 02:04:53;;;;;;;10.02;4.90;;;13.60;99.90;;;;;;5039718;28;38096;-76
2023/10/22 02:07:19;;;;;;;10.50;4.65;;;13.50;99.90;;;;;;5041908;28;38008;-76
2023/10/22 02:09:45;;;;;;;12.48;4.35;;;13.30;99.90;;;;;;5037854;28;38258;-76
2023/10/22 02:12:11;;;;;;;11.52;4.60;;;13.30;99.90;;;;;;5042401;28;39862;-76
2023/10/22 02:14:37;;;;;;;11.15;5.05;;;13.30;99.90;;;;;;5040842;28;37465;-76
2023/10/22 02:17:04;;;;;;;15.75;4.13;;;13.20;99.90;;;;;;5041631;28;38132;-76
2023/10/22 02:19:30;;;;;;;12.15;4.07;;;13.10;99.90;;;;;;5036383;28;36110;-78
2023/10/22 02:21:56;;;;;;;6.07;3.45;;;13.00;99.90;;;;;;5035356;28;37596;-76
2023/10/22 02:24:22;;;;;;;8.93;3.33;;;12.80;99.90;;;;;;5045622;28;39597;-76
2023/10/22 02:26:48;;;;;;;14.02;3.70;;;12.80;99.90;;;;;;5036896;28;37783;-77
2023/10/22 02:29:15;;;;;;;15.52;3.38;;;12.60;99.90;;;;;;5042611;28;36118;-77
2023/10/22 02:31:42;;;;;;;11.80;3.40;;;12.60;99.90;;;;;;5041208;28;40166;-76
2023/10/22 02:34:09;;;;;;;8.82;3.10;;;12.50;99.90;;;;;;5045070;28;39670;-76
2023/10/22 02:36:35;;;;;;;9.93;2.80;;;12.50;99.90;;;;;;5045555;28;37002;-77
2023/10/22 02:39:04;;;;;;;7.63;3.80;;;12.40;99.90;;;;;;5038290;28;36833;-76
2023/10/22 02:41:30;;;;;;;7.60;3.05;;;12.40;99.90;;;;;;5037761;28;39619;-76
2023/10/22 02:43:58;;;;;;;9.52;4.22;;;12.40;99.90;;;;;;5044129;28;38296;-76
2023/10/22 02:46:24;;;;;;;6.78;4.13;;;12.40;99.90;;;;;;5038298;28;38124;-77
2023/10/22 02:48:50;;;;;;;8.98;3.95;;;12.40;99.90;;;;;;5045702;28;37318;-77
2023/10/22 02:51:17;;;;;;;8.50;3.78;;;12.40;99.90;;;;;;5064227;28;37278;-76
2023/10/22 02:53:43;;;;;;;12.52;3.85;;;12.40;99.90;;;;;;5038247;28;38728;-76
2023/10/22 02:56:10;;;;;;;10.57;3.05;;;12.30;99.90;;;;;;5058713;28;37238;-76
2023/10/22 02:58:38;;;;;;;8.70;2.47;;;12.30;99.90;;;;;;5043886;28;36618;-76
2023/10/22 03:01:08;;;;;;;6.32;2.80;;;12.20;99.90;;;;;;5041801;28;38346;-76
2023/10/22 03:03:38;;;;;;;9.32;2.38;;;12.20;99.90;;;;;;5040639;28;40078;-76
2023/10/22 03:06:07;;;;;;;5.15;2.60;;;12.20;99.90;;;;;;5043313;28;38432;-76
2023/10/22 03:08:38;;;;;;;6.40;3.03;;;12.20;99.90;;;;;;5040729;28;36931;-76
2023/10/22 03:11:05;;;;;;;6.72;2.10;;;12.20;99.90;;;;;;5053976;28;37692;-77
2023/10/22 03:13:32;;;;;;;9.88;2.28;;;12.20;99.90;;;;;;5046143;28;39622;-77
2023/10/22 03:16:07;;;;;;;8.23;2.20;;;12.20;99.90;;;;;;5040619;28;37793;-76
2023/10/22 03:18:34;;;;;;;6.97;2.05;;;12.20;99.90;;;;;;5042305;28;48679;-76
2023/10/22 03:21:00;;;;;;;6.38;2.17;;;12.20;99.90;;;;;;5043109;28;37525;-76
2023/10/22 03:23:26;;;;;;;7.43;1.80;;;12.20;99.90;;;;;;5061834;28;37384;-77
2023/10/22 03:25:52;;;;;;;6.30;2.13;;;12.20;99.90;;;;;;5041983;28;37332;-75
2023/10/22 03:28:19;;;;;;;11.45;2.05;;;12.20;99.90;;;;;;5046198;28;37947;-77
2023/10/22 03:30:45;;;;;;;6.90;2.20;;;12.20;99.90;;;;;;5045908;28;39740;-76
2023/10/22 03:33:11;;;;;;;9.20;1.90;;;12.20;99.90;;;;;;5039710;28;38346;-76
2023/10/22 03:35:37;;;;;;;4.70;1.70;;;12.20;99.90;;;;;;5042359;28;36807;-76
2023/10/22 03:38:03;;;;;;;9.43;2.25;;;12.20;99.90;;;;;;5042295;28;37838;-76
2023/10/22 03:40:33;;;;;;;6.70;1.88;;;12.20;99.90;;;;;;5042794;28;39427;-76
2023/10/22 03:42:59;;;;;;;8.55;2.08;;;12.20;99.90;;;;;;5044832;28;38560;-76
2023/10/22 03:45:25;;;;;;;6.95;2.05;;;12.20;99.90;;;;;;5043291;28;36811;-76
2023/10/22 03:47:51;;;;;;;9.50;2.22;;;12.20;99.90;;;;;;5045600;28;36205;-76
2023/10/22 03:50:18;;;;;;;10.30;1.58;;;12.20;99.90;;;;;;5043061;28;37391;-77
2023/10/22 03:52:44;;;;;;;8.70;2.03;;;12.20;99.90;;;;;;5046178;28;38359;-76
2023/10/22 03:55:10;;;;;;;5.60;1.52;;;12.20;99.90;;;;;;5047542;28;36836;-76
2023/10/22 03:57:36;;;;;;;6.95;2.10;;;12.20;99.90;;;;;;5048757;28;35876;-76
2023/10/22 04:00:06;;;;;;;4.97;1.80;;;12.20;99.90;;;;;;5049469;28;37420;-76
2023/10/22 04:02:32;;;;;;;9.27;2.90;;;12.20;99.90;;;;;;5043512;28;48473;-77
2023/10/22 04:04:58;;;;;;;10.55;3.40;;;12.30;99.90;;;;;;5043645;28;38293;-76
2023/10/22 04:07:24;;;;;;;6.20;3.38;;;12.30;99.90;;;;;;5046438;28;36190;-76
2023/10/22 04:09:50;;;;;;;8.32;3.88;;;12.20;99.90;;;;;;5048924;28;40724;-76
2023/10/22 04:12:16;;;;;;;8.23;3.60;;;12.20;99.90;;;;;;5049022;28;39095;-76
2023/10/22 04:14:42;;;;;;;5.88;3.30;;;12.20;99.90;;;;;;5058405;28;36972;-77
2023/10/22 04:17:08;;;;;;;8.57;3.50;;;12.20;99.90;;;;;;5044765;28;35884;-76
2023/10/22 04:19:35;;;;;;;6.22;3.45;;;12.20;99.90;;;;;;5060001;28;37975;-76
2023/10/22 04:22:01;;;;;;;7.53;3.97;;;12.20;99.90;;;;;;5059480;28;37595;-76
2023/10/22 04:24:27;;;;;;;5.35;2.83;;;12.20;99.90;;;;;;5056494;28;46804;-76
2023/10/22 04:26:53;;;;;;;9.68;3.53;;;12.20;99.90;;;;;;5046057;28;36177;-76
2023/10/22 04:29:19;;;;;;;6.63;3.30;;;12.20;99.90;;;;;;5042523;28;36964;-76
2023/10/22 04:31:45;;;;;;;5.85;2.65;;;12.20;99.90;;;;;;5043392;28;38496;-76
2023/10/22 04:34:11;;;;;;;6.95;2.70;;;12.20;99.90;;;;;;5045058;28;36755;-76
2023/10/22 04:36:37;;;;;;;7.28;2.88;;;12.20;99.90;;;;;;5047160;28;36377;-76
2023/10/22 04:39:03;;;;;;;6.60;2.40;;;12.20;99.90;;;;;;5042411;28;39480;-76
2023/10/22 04:41:29;;;;;;;9.10;2.63;;;12.10;99.90;;;;;;5042016;28;38686;-76
2023/10/22 04:43:55;;;;;;;6.75;2.80;;;12.20;99.90;;;;;;5041342;28;37957;-76
2023/10/22 04:46:21;;;;;;;5.10;2.35;;;12.20;99.90;;;;;;5044330;28;38251;-77
2023/10/22 04:48:48;;;;;;;9.63;3.22;;;12.20;99.90;;;;;;5044670;28;41575;-77
2023/10/22 04:51:16;;;;;;;9.02;3.70;;;12.20;99.90;;;;;;5044234;28;37234;-76
2023/10/22 04:53:42;;;;;;;6.35;4.68;;;12.20;99.90;;;;;;5039233;28;37281;-77
2023/10/22 04:56:08;;;;;;;9.23;5.15;;;12.20;99.90;;;;;;5044543;28;36042;-77
2023/10/22 04:58:35;;;;;;;8.55;4.55;;;12.20;99.90;;;;;;5044767;28;37558;-76
2023/10/22 05:01:01;;;;;;;9.50;5.50;;;12.20;99.90;;;;;;5044508;28;39412;-76
2023/10/22 05:03:27;;;;;;;10.27;5.82;;;12.20;99.90;;;;;;5042411;28;48502;-76
2023/10/22 05:05:54;;;;;;;10.88;5.43;;;12.20;99.90;;;;;;5045162;28;37515;-76
2023/10/22 05:08:23;;;;;;;7.93;5.18;;;12.20;99.90;;;;;;5046596;28;39394;-77
2023/10/22 05:10:49;;;;;;;11.55;6.03;;;12.20;99.90;;;;;;5060092;28;37337;-76
2023/10/22 05:13:15;;;;;;;8.23;5.40;;;12.20;99.90;;;;;;5040652;28;37982;-76
2023/10/22 05:15:50;;;;;;;8.52;6.35;;;12.20;99.90;;;;;;5045062;28;37034;-76
2023/10/22 05:18:16;;;;;;;8.43;4.68;;;12.30;99.90;;;;;;5045489;28;37713;-76
2023/10/22 05:20:43;;;;;;;12.30;5.25;;;12.30;99.90;;;;;;5058232;28;38773;-76
2023/10/22 05:23:09;;;;;;;10.63;4.68;;;12.20;99.90;;;;;;5045753;28;38817;-77
2023/10/22 05:25:36;;;;;;;11.23;4.43;;;12.20;99.90;;;;;;5051852;28;36279;-77
2023/10/22 05:28:02;;;;;;;9.23;4.65;;;12.20;99.90;;;;;;5049247;28;39062;-76
2023/10/22 05:30:31;;;;;;;6.75;4.07;;;12.20;99.90;;;;;;5062583;28;37855;-77
2023/10/22 05:32:57;;;;;;;11.10;4.10;;;12.20;99.90;;;;;;5044442;28;38274;-76
2023/10/22 05:35:23;;;;;;;8.82;3.85;;;12.20;99.90;;;;;;5042786;28;36985;-76
2023/10/22 05:37:51;;;;;;;10.00;3.88;;;12.20;99.90;;;;;;5045639;28;38887;-77
2023/10/22 05:40:18;;;;;;;13.40;4.75;;;12.20;99.90;;;;;;5047253;28;37855;-77
2023/10/22 05:42:44;;;;;;;11.20;3.83;;;12.20;99.90;;;;;;5037957;28;37808;-77
2023/10/22 05:45:10;;;;;;;8.93;2.92;;;12.20;99.90;;;;;;5045321;28;36924;-77
2023/10/22 05:47:37;;;;;;;7.60;3.67;;;12.20;99.90;;;;;;5050089;28;38761;-76
2023/10/22 05:50:04;;;;;;;9.52;3.38;;;12.20;99.90;;;;;;5057068;28;37606;-77
2023/10/22 05:52:30;;;;;;;10.70;3.55;;;12.20;99.90;;;;;;5045289;28;37897;-77
2023/10/22 05:54:56;;;;;;;8.68;3.97;;;12.20;99.90;;;;;;5038702;28;36892;-77
2023/10/22 05:57:26;;;;;;;7.40;3.55;;;12.10;99.90;;;;;;5038667;28;38630;-77
2023/10/22 05:59:52;;;;;;;5.78;3.65;;;12.10;99.90;;;;;;5033445;28;37318;-77
2023/10/22 06:02:18;;;;;;;6.40;3.13;;;12.10;99.90;;;;;;5038501;28;36804;-77
2023/10/22 06:04:44;;;;;;;11.18;4.25;;;12.10;99.90;;;;;;5032310;28;35888;-77
2023/10/22 06:07:11;;;;;;;8.60;3.45;;;12.10;99.90;;;;;;5047377;28;39512;-77
2023/10/22 06:09:37;;;;;;;8.80;3.88;;;12.00;99.90;;;;;;5042316;28;38104;-78
2023/10/22 06:12:03;;;;;;;9.63;3.47;;;12.00;99.90;;;;;;5045531;28;36795;-78
2023/10/22 06:14:29;;;;;;;9.68;3.70;;;11.90;99.90;;;;;;5045481;28;38151;-77
2023/10/22 06:16:56;;;;;;;7.10;3.55;;;11.90;99.90;;;;;;5039430;28;37698;-78
2023/10/22 06:19:22;;;;;;;5.78;4.10;;;11.90;99.90;;;;;;5045811;28;38746;-77
2023/10/22 06:21:48;;;;;;;10.32;4.70;;;11.90;99.90;;;;;;5035622;28;38298;-77
2023/10/22 06:24:14;;;;;;;7.53;4.05;;;11.90;99.90;;;;;;5040726;28;37331;-75
2023/10/22 06:26:40;;;;;;;6.90;3.70;;;11.90;99.90;;;;;;5030786;28;37595;-78
2023/10/22 06:29:06;;;;;;;6.53;3.53;;;11.90;99.90;;;;;;5037666;28;38031;-77
2023/10/22 06:31:32;;;;;;;7.82;4.25;;;11.90;99.90;;;;;;5037836;28;38608;-78
2023/10/22 06:34:02;;;;;;;7.10;4.03;;;12.00;99.90;;;;;;5043074;28;36151;-79
2023/10/22 06:36:30;;;;;;;7.97;4.40;;;12.00;99.90;;;;;;5043129;28;48847;-76
2023/10/22 06:38:56;;;;;;;7.53;3.92;;;11.90;99.90;;;;;;5035388;28;39951;-76
2023/10/22 06:41:24;;;;;;;10.85;4.00;;;12.00;99.90;;;;;;5037774;28;37780;-77
2023/10/22 06:43:50;;;;;;;9.38;3.65;;;11.90;99.90;;;;;;5043058;28;36830;-76
2023/10/22 06:46:17;;;;;;;4.95;3.28;;;11.90;99.90;;;;;;5043678;28;39424;-76
2023/10/22 06:48:43;;;;;;;6.45;3.40;;;12.00;99.90;;;;;;5055701;28;37295;-76
2023/10/22 06:51:11;;;;;;;11.20;3.67;;;11.90;99.90;;;;;;5057681;28;37892;-76
2023/10/22 06:53:41;;;;;;;8.00;4.07;;;12.00;99.90;;;;;;5055419;28;37712;-76
2023/10/22 06:56:07;;;;;;;9.57;3.25;;;12.00;99.90;;;;;;5057762;28;40185;-76
2023/10/22 06:58:34;;;;;;;10.00;3.20;;;11.90;99.90;;;;;;5043986;28;38156;-77
2023/10/22 07:01:09;;;;;;;6.22;3.70;;;12.00;99.90;;;;;;5042779;28;37827;-76
2023/10/22 07:03:36;;;;;;;7.90;4.10;;;12.00;99.90;;;;;;5040900;28;47446;-76
2023/10/22 07:06:02;;;;;;;5.35;3.00;;;12.00;99.90;;;;;;5041080;28;39040;-77
2023/10/22 07:08:29;;;;;;;11.30;3.35;;;12.00;99.90;;;;;;5052445;28;38260;-78
2023/10/22 07:10:55;;;;;;;7.43;3.45;;;12.00;99.90;;;;;;5057582;28;39105;-77
2023/10/22 07:13:23;;;;;;;6.22;2.92;;;12.10;99.90;;;;;;5039839;28;37669;-79
2023/10/22 07:15:50;;;;;;;5.82;2.60;;;12.10;99.90;;;;;;5035895;28;38326;-78
2023/10/22 07:18:16;;;;;;;3.95;2.45;;;12.10;99.90;;;;;;5041574;28;39370;-77
2023/10/22 07:20:42;;;;;;;11.98;3.00;;;12.10;99.90;;;;;;5038573;28;37957;-77
2023/10/22 07:23:09;;;;;;;7.20;3.40;;;12.20;99.90;;;;;;5047081;28;36427;-76
2023/10/22 07:25:36;;;;;;;7.32;2.70;;;12.10;99.90;;;;;;5063021;28;38197;-77
2023/10/22 07:28:03;;;;;;;7.93;2.60;;;12.10;99.90;;;;;;5047787;28;38025;-77
2023/10/22 07:30:31;;;;;;;7.00;3.05;;;12.20;99.90;;;;;;5055856;28;36937;-77
2023/10/22 07:32:58;;;;;;;5.95;2.33;;;12.20;99.90;;;;;;5049744;28;36803;-77
2023/10/22 07:35:27;;;;;;;9.38;2.67;;;12.20;99.90;;;;;;5051697;28;38591;-79
2023/10/22 07:37:53;;;;;;;7.65;2.78;;;12.20;99.90;;;;;;5048354;28;37686;-78
2023/10/22 07:40:19;;;;;;;9.27;2.88;;;12.20;99.90;;;;;;5051881;28;36836;-79
2023/10/22 07:42:45;;;;;;;11.88;2.50;;;12.20;99.90;;;;;;5045209;28;36308;-76
2023/10/22 07:45:12;;;;;;;7.13;2.55;;;12.30;99.90;;;;;;5047209;28;37978;-76
2023/10/22 07:47:38;;;;;;;6.95;2.25;;;12.30;99.90;;;;;;5050220;28;37589;-76
2023/10/22 07:50:05;;;;;;;8.27;2.95;;;12.30;99.90;;;;;;5045585;28;38822;-76
2023/10/22 07:52:32;;;;;;;6.03;2.47;;;12.40;99.90;;;;;;5043888;28;37829;-76
2023/10/22 07:54:58;;;;;;;4.55;2.55;;;12.40;99.90;;;;;;5039243;28;37439;-76
2023/10/22 07:57:28;;;;;;;4.90;2.40;;;12.40;99.90;;;;;;5046531;28;37537;-75
2023/10/22 07:59:55;;;;;;;6.38;2.72;;;12.40;99.90;;;;;;5047632;28;36700;-75
2023/10/22 08:02:23;;;;;;;6.40;2.72;;;12.40;99.90;;;;;;5045539;28;35862;-76
2023/10/22 08:04:49;;;;;;;6.20;2.20;;;12.50;99.90;;;;;;5046005;28;40036;-76
2023/10/22 08:07:18;;;;;;;6.20;2.00;;;12.50;99.90;;;;;;5042038;28;37718;-76
2023/10/22 08:09:46;;;;;;;6.28;2.60;;;12.60;99.90;;;;;;5045371;28;38152;-75
2023/10/22 08:12:13;;;;;;;8.38;2.15;;;12.60;99.90;;;;;;5045265;28;36080;-75
2023/10/22 08:14:39;;;;;;;4.88;1.90;;;12.70;99.90;;;;;;5044801;28;38600;-75
2023/10/22 08:17:05;;;;;;;6.65;1.75;;;12.80;99.90;;;;;;5051018;28;38652;-77
2023/10/22 08:19:32;;;;;;;5.15;1.98;;;12.80;99.90;;;;;;5041384;28;36676;-77
2023/10/22 08:21:58;;;;;;;6.18;2.13;;;13.00;99.90;;;;;;5028551;28;37367;-77
2023/10/22 08:24:24;;;;;;;7.57;2.08;;;13.00;99.90;;;;;;5035372;28;39017;-76
2023/10/22 08:26:50;;;;;;;4.72;2.30;;;13.00;99.90;;;;;;5058610;28;37951;-78
2023/10/22 08:29:16;;;;;;;6.93;1.80;;;13.00;99.90;;;;;;5049170;28;38006;-78
2023/10/22 08:31:42;;;;;;;3.92;2.05;;;13.00;99.90;;;;;;5055592;28;37080;-78
2023/10/22 08:34:11;;;;;;;5.15;2.40;;;13.10;99.90;;;;;;5061155;28;39943;-77
2023/10/22 08:36:37;;;;;;;4.22;1.70;;;13.20;99.90;;;;;;5068633;28;38291;-77
2023/10/22 08:39:03;;;;;;;8.70;2.03;;;13.20;99.90;;;;;;5057217;28;38586;-77
2023/10/22 08:41:43;;;;;;;5.13;1.95;;;13.30;99.90;;;;;;5045819;28;36553;-77
2023/10/22 08:44:12;;;;;;;6.18;1.70;;;13.30;99.90;;;;;;5046015;28;37873;-77
2023/10/22 08:46:38;;;;;;;8.25;2.10;;;13.40;99.90;;;;;;5061291;28;37077;-78
2023/10/22 08:49:06;;;;;;;5.75;2.10;;;13.40;99.90;;;;;;5044132;28;38021;-77
2023/10/22 08:51:32;;;;;;;8.55;2.13;;;13.40;99.90;;;;;;5049864;28;37106;-77
2023/10/22 08:54:00;;;;;;;5.22;2.38;;;13.40;99.90;;;;;;5068723;28;36485;-75
2023/10/22 08:56:27;;;;;;;6.97;1.98;;;13.60;99.90;;;;;;5058393;28;48750;-79
2023/10/22 08:58:53;;;;;;;5.55;1.95;;;13.60;99.90;;;;;;5050734;28;37030;-78
2023/10/22 09:01:26;;;;;;;8.57;2.15;;;13.60;99.90;;;;;;5050814;28;37599;-77
2023/10/22 09:03:54;;;;;;;3.83;1.65;;;13.60;99.90;;;;;;5046413;28;38965;-77
2023/10/22 09:06:22;;;;;;;6.13;1.90;;;13.60;99.90;;;;;;5049462;28;37830;-77
2023/10/22 09:08:48;;;;;;;7.40;2.17;;;13.60;99.90;;;;;;5063601;28;37049;-77
2023/10/22 09:11:18;;;;;;;3.28;2.17;;;13.60;99.90;;;;;;5049975;28;37260;-77
2023/10/22 09:13:44;;;;;;;6.88;1.98;;;13.50;99.90;;;;;;5047782;28;40194;-77
2023/10/22 09:16:11;;;;;;;8.35;2.15;;;13.60;99.90;;;;;;5047310;28;37217;-77
2023/10/22 09:18:44;;;;;;;5.93;1.83;;;13.60;99.90;;;;;;5046266;28;36835;-76
2023/10/22 09:21:10;;;;;;;3.33;1.40;;;13.60;99.90;;;;;;5045914;28;36766;-77
2023/10/22 09:23:37;;;;;;;4.40;1.73;;;13.70;99.90;;;;;;5044235;28;39143;-77
2023/10/22 09:26:03;;;;;;;3.75;1.80;;;13.70;99.90;;;;;;5049475;28;37877;-77
2023/10/22 09:28:30;;;;;;;3.97;1.67;;;13.80;99.90;;;;;;5049173;28;38201;-77
2023/10/22 09:31:05;;;;;;;3.70;1.75;;;13.70;99.90;;;;;;5049642;28;37081;-77
2023/10/22 09:33:32;;;;;;;9.10;2.13;;;13.70;99.90;;;;;;5044117;28;47856;-77
2023/10/22 09:36:09;;;;;;;7.50;2.15;;;13.60;99.90;;;;;;5047053;28;37628;-77
2023/10/22 09:38:49;;;;;;;4.07;1.77;;;13.50;99.90;;;;;;5044712;28;48720;-77
2023/10/22 09:41:26;;;;;;;4.80;2.10;;;13.60;99.90;;;;;;5044618;28;35962;-77
2023/10/22 09:44:00;;;;;;;3.13;1.50;;;13.70;99.90;;;;;;5041056;28;39613;-77
2023/10/22 09:46:32;;;;;;;4.40;1.83;;;13.80;99.90;;;;;;5038071;28;38749;-77
2023/10/22 09:49:02;;;;;;;5.13;1.50;;;14.00;99.90;;;;;;5045012;28;38115;-77
2023/10/22 09:51:31;;;;;;;5.22;1.92;;;14.10;99.90;;;;;;5060427;28;47114;-77
2023/10/22 09:54:05;;;;;;;4.82;2.22;;;14.10;99.90;;;;;;5042030;28;37727;-77
2023/10/22 09:56:52;;;;;;;3.38;1.40;;;14.10;99.90;;;;;;5043349;28;48262;-76
2023/10/22 09:59:22;;;;;;;3.20;1.35;;;14.20;99.90;;;;;;5038569;28;37075;-76
2023/10/22 10:01:51;;;;;;;7.13;1.58;;;14.20;99.90;;;;;;5044678;28;35903;-77
2023/10/22 10:04:20;;;;;;;4.97;1.55;;;14.10;99.90;;;;;;5044608;28;39556;-77
2023/10/22 10:06:47;;;;;;;2.17;1.30;;;14.10;99.90;;;;;;5044332;28;37511;-77
2023/10/22 10:09:14;;;;;;;4.60;1.00;;;14.10;99.90;;;;;;5047274;28;37669;-76
2023/10/22 10:11:41;;;;;;;5.43;1.83;;;14.00;99.90;;;;;;5046341;28;38173;-77
2023/10/22 10:14:33;;;;;;;6.82;1.40;;;14.10;99.90;;;;;;5060380;28;37694;-76
2023/10/22 10:17:01;;;;;;;;;;;14.10;99.90;;;;;;5048056;28;38098;-77
2023/10/22 10:19:27;;;;;;;6.70;1.98;;;14.20;99.90;;;;;;5048486;28;37032;-77
2023/10/22 10:21:53;;;;;;;3.15;1.17;;;14.20;99.90;;;;;;5068849;28;35463;-77
2023/10/22 10:24:24;;;;;;;3.60;1.20;;;14.30;99.90;;;;;;5052800;28;37438;-77
2023/10/22 10:27:11;;;;;;;2.38;1.10;;;14.40;99.90;;;;;;5045387;28;37663;-78
2023/10/22 10:29:39;;;;;;;1.38;0.98;;;14.40;99.90;;;;;;5035073;28;47477;-77
2023/10/22 10:32:13;;;;;;;2.70;0.95;;;14.50;99.90;;;;;;5048827;28;38207;-76
2023/10/22 10:34:43;;;;;;;4.70;1.63;;;14.50;99.90;;;;;;5045726;28;37979;-76
2023/10/22 10:37:15;;;;;;;6.28;1.40;;;14.50;99.90;;;;;;5043660;28;37549;-77
2023/10/22 10:39:43;;;;;;;3.72;1.00;;;14.50;99.90;;;;;;5048093;28;37095;-77
2023/10/22 10:42:10;;;;;;;4.57;1.27;;;14.50;99.90;;;;;;5045907;28;37089;-77
2023/10/22 10:45:06;;;;;;;4.82;1.75;;;14.60;99.90;;;;;;5044141;28;37819;-78
2023/10/22 10:47:37;;;;;;;6.63;1.40;;;14.80;99.90;;;;;;5034123;28;49187;-78
2023/10/22 10:50:10;;;;;;;4.85;1.30;;;14.90;99.90;;;;;;5044417;28;38464;-77
2023/10/22 10:52:48;;;;;;;4.50;1.17;;;15.00;99.90;;;;;;5041861;28;47298;-78
2023/10/22 10:55:14;;;;;;;5.20;1.00;;;15.10;99.90;;;;;;5036337;28;38881;-79
2023/10/22 10:57:44;;;;;;;2.35;1.30;;;15.20;99.90;;;;;;5054926;28;37388;-78
2023/10/22 11:00:21;;;;;;;3.75;1.25;;;15.30;99.90;;;;;;5036937;28;37149;-78
2023/10/22 11:02:52;;;;;;;3.22;1.10;;;15.40;99.90;;;;;;5045199;28;47724;-78
2023/10/22 11:05:32;;;;;;;2.15;0.70;;;15.50;99.90;;;;;;5050856;28;39122;-78
2023/10/22 11:07:59;;;;;;;9.40;1.10;;;15.30;99.90;;;;;;5043754;28;38762;-79
2023/10/22 11:10:29;;;;;;;2.95;1.17;;;15.30;99.90;;;;;;5043128;28;36522;-78
2023/10/22 11:13:02;;;;;;;3.15;1.00;;;15.40;99.90;;;;;;5046346;28;40997;-78
2023/10/22 11:15:36;;;;;;;5.07;1.30;;;15.50;99.90;;;;;;5043269;28;48627;-78
2023/10/22 11:18:05;;;;;;;2.40;0.98;;;15.60;99.90;;;;;;5042278;28;37827;-78
2023/10/22 11:20:32;;;;;;;2.50;0.80;;;15.60;99.90;;;;;;5046519;28;39682;-78
2023/10/22 11:22:58;;;;;;;5.95;1.20;;;15.70;99.90;;;;;;5047267;28;37140;-75
2023/10/22 11:25:25;;;;;;;2.95;0.63;;;15.90;99.90;;;;;;5043985;28;38882;-75
2023/10/22 11:27:51;;;;;;;3.03;0.80;;;15.80;99.90;;;;;;5040191;28;38529;-76
2023/10/22 11:30:38;;;;;;;3.95;0.95;;;15.70;99.90;;;;;;5045075;28;38192;-76
2023/10/22 11:33:08;;;;;;;5.38;0.88;;;15.70;99.90;;;;;;5038105;28;37074;-78
2023/10/22 11:35:37;;;;;;;1.27;0.47;;;15.70;99.90;;;;;;5049541;28;37446;-77
2023/10/22 11:38:05;;;;;;;2.28;0.60;;;15.70;99.90;;;;;;5047885;28;37378;-77
2023/10/22 11:40:41;;;;;;;2.17;0.70;;;15.80;99.90;;;;;;5045289;28;38189;-77
2023/10/22 11:43:16;;;;;;;4.10;0.70;;;15.80;99.90;;;;;;5046803;28;36260;-77
2023/10/22 11:45:56;;;;;;;3.40;0.75;;;15.80;99.90;;;;;;5038272;28;39568;-77
2023/10/22 11:48:24;;;;;;;2.75;0.85;;;15.90;99.90;;;;;;5033231;28;39233;-78
2023/10/22 11:51:01;;;;;;;1.48;0.77;;;16.10;99.90;;;;;;5043340;28;39690;-79
2023/10/22 11:53:39;;;;;;;5.05;0.73;;;16.20;99.90;;;;;;5043685;28;37104;-79
2023/10/22 11:56:05;;;;;;;3.40;0.70;;;16.20;99.90;;;;;;5048212;28;38924;-79
2023/10/22 11:58:31;;;;;;;3.33;0.65;;;16.30;99.90;;;;;;5047831;28;39187;-76
2023/10/22 12:00:57;;;;;;;2.83;0.70;;;16.30;99.90;;;;;;5049426;28;38717;-77
2023/10/22 12:03:24;;;;;;;2.67;0.93;;;16.10;99.90;;;;;;5042013;28;37651;-76
2023/10/22 12:05:50;;;;;;;4.03;0.80;;;16.00;99.90;;;;;;5043762;28;38811;-78
2023/10/22 12:08:16;;;;;;;3.53;0.90;;;16.00;99.90;;;;;;5049857;28;38743;-77
2023/10/22 12:10:42;;;;;;;3.17;0.77;;;15.80;99.90;;;;;;5047084;28;37495;-77
2023/10/22 12:13:10;;;;;;;1.10;0.50;;;15.60;99.90;;;;;;5043967;28;36299;-76
2023/10/22 12:15:36;;;;;;;1.85;0.70;;;15.50;99.90;;;;;;5040763;28;39538;-76
2023/10/22 12:18:05;;;;;;;1.80;0.73;;;15.80;99.90;;;;;;5049536;28;38734;-76
2023/10/22 12:20:31;;;;;;;2.60;0.50;;;16.10;97.60;;;;;;5051740;28;38097;-76
2023/10/22 12:22:59;;;;;;;2.53;0.73;;;16.10;99.90;;;;;;5047883;28;37208;-77
2023/10/22 12:25:29;;;;;;;2.42;0.60;;;15.70;98.40;;;;;;5048205;28;39829;-77
2023/10/22 12:27:55;;;;;;;3.10;0.70;;;15.50;99.90;;;;;;5047195;28;39339;-77
2023/10/22 12:30:21;;;;;;;2.35;0.70;;;15.30;99.90;;;;;;5045516;28;37424;-76
2023/10/22 12:32:47;;;;;;;2.78;0.50;;;15.20;99.90;;;;;;5048426;28;37625;-77
2023/10/22 12:35:14;;;;;;;2.92;0.70;;;15.10;99.90;;;;;;5048071;28;39664;-77
2023/10/22 12:37:40;;;;;;;1.98;0.80;;;15.10;99.90;;;;;;5040231;28;38504;-77
2023/10/22 12:40:07;;;;;;;2.75;0.90;;;15.10;99.90;;;;;;5042115;28;35394;-77
2023/10/22 12:42:34;;;;;;;2.80;0.60;;;15.30;99.90;;;;;;5039719;28;36748;-77
2023/10/22 12:45:00;;;;;;;2.78;0.60;;;15.60;99.90;;;;;;5043247;28;39482;-77
2023/10/22 12:47:26;;;;;;;4.95;0.98;;;15.70;99.90;;;;;;5058674;28;37434;-78
2023/10/22 12:49:52;;;;;;;3.10;0.70;;;15.60;99.90;;;;;;5041807;28;37038;-77